Time;durP1;ratioP1;P1;durP2;ratioP2;P2;SDS_P1;SDS_P2;PMS_P1;PMS_P2;Temp;Humidity;BMP_temperature;BMP_pressure;BME280_temperature;BME280_humidity;BME280_pressure;Samples;Min_cycle;Max_cycle;Signal;HPM_P1;HPM_P2
2022/07/19 00:03:16;;;;;;;17.63;3.17;;;;;;;21.02;72.92;100841.81;8341208;28;20520;-57
2022/07/19 00:07:17;;;;;;;12.07;3.13;;;;;;;20.56;75.35;100841.38;8334889;28;20450;-57
2022/07/19 00:11:17;;;;;;;15.20;3.10;;;;;;;20.42;75.75;100830.47;8323178;28;20037;-57
2022/07/19 00:15:18;;;;;;;15.23;3.00;;;;;;;20.57;74.82;100834.00;8329431;28;20272;-57
2022/07/19 00:19:19;;;;;;;16.23;3.20;;;;;;;20.47;74.97;100834.34;8325863;28;20512;-56
2022/07/19 00:23:19;;;;;;;9.25;2.95;;;;;;;20.42;74.91;100824.97;8327494;28;20459;-57
2022/07/19 00:27:19;;;;;;;16.40;3.40;;;;;;;20.26;75.91;100823.34;8326293;28;20039;-57
2022/07/19 00:31:22;;;;;;;11.80;2.90;;;;;;;19.96;77.65;100826.34;8330047;28;20041;-57
2022/07/19 00:35:22;;;;;;;5.47;2.85;;;;;;;19.94;77.60;100812.81;8328450;28;20044;-56
2022/07/19 00:39:23;;;;;;;14.80;3.33;;;;;;;19.83;77.79;100816.09;8325288;28;20041;-57
2022/07/19 00:43:23;;;;;;;18.45;3.70;;;;;;;19.63;78.93;100816.84;8326106;28;20037;-57
2022/07/19 00:47:24;;;;;;;12.43;3.13;;;;;;;19.52;79.44;100822.84;8334577;28;20063;-55
2022/07/19 00:51:25;;;;;;;11.32;2.72;;;;;;;19.58;78.61;100813.84;8331880;28;20272;-57
2022/07/19 00:55:27;;;;;;;11.45;3.17;;;;;;;19.50;78.83;100820.28;8328778;28;20581;-57
2022/07/19 00:59:28;;;;;;;15.82;3.70;;;;;;;19.55;78.54;100822.47;8331288;28;20096;-57
2022/07/19 01:03:29;;;;;;;16.35;3.65;;;;;;;19.50;78.66;100820.28;8328276;28;20042;-57
2022/07/19 01:07:29;;;;;;;10.85;3.13;;;;;;;19.42;78.69;100815.75;8332517;28;20068;-57
2022/07/19 01:11:30;;;;;;;15.88;3.85;;;;;;;19.29;79.52;100812.84;8327477;28;20482;-57
2022/07/19 01:15:31;;;;;;;13.25;3.65;;;;;;;19.29;79.34;100812.84;8343956;28;20451;-56
2022/07/19 01:19:31;;;;;;;9.60;3.17;;;;;;;19.08;79.92;100809.97;8328080;28;20025;-57
2022/07/19 01:23:32;;;;;;;10.27;2.83;;;;;;;18.96;80.62;100805.97;8328023;28;20044;-55
2022/07/19 01:27:38;;;;;;;11.27;2.67;;;;;;;18.94;80.48;100797.09;8329854;28;20124;-54
2022/07/19 01:31:38;;;;;;;6.85;2.78;;;;;;;19.25;78.56;100803.25;8335888;28;20402;-56
2022/07/19 01:35:39;;;;;;;5.00;3.08;;;;;;;19.44;77.48;100794.50;8340569;28;20051;-55
2022/07/19 01:39:39;;;;;;;3.30;2.35;;;;;;;19.63;76.11;100803.13;8328428;28;20032;-57
2022/07/19 01:43:40;;;;;;;4.82;2.90;;;;;;;19.74;75.46;100799.91;8328268;28;20056;-56
2022/07/19 01:47:41;;;;;;;11.77;3.58;;;;;;;19.27;78.24;100798.47;8336736;28;20043;-55
2022/07/19 01:51:41;;;;;;;13.73;3.30;;;;;;;19.01;79.68;100792.59;8339227;28;20033;-54
2022/07/19 01:55:42;;;;;;;11.07;3.67;;;;;;;18.84;81.02;100796.50;8329283;28;20581;-56
2022/07/19 01:59:42;;;;;;;11.75;3.70;;;;;;;18.97;80.45;100780.28;8334702;28;20276;-55
2022/07/19 02:03:43;;;;;;;5.97;3.20;;;;;;;18.98;80.74;100779.25;8331919;28;20123;-53
2022/07/19 02:07:43;;;;;;;8.18;4.03;;;;;;;19.09;80.43;100778.75;8328046;28;20037;-53
2022/07/19 02:11:43;;;;;;;14.83;3.80;;;;;;;19.14;79.93;100770.84;8329960;28;20447;-56
2022/07/19 02:15:44;;;;;;;11.40;3.67;;;;;;;19.14;79.51;100781.81;8335731;28;20282;-55
2022/07/19 02:19:44;;;;;;;11.05;3.90;;;;;;;18.96;80.61;100777.72;8330900;28;20284;-53
2022/07/19 02:23:45;;;;;;;10.43;3.47;;;;;;;18.94;80.62;100769.69;8329619;28;20486;-54
2022/07/19 02:27:45;;;;;;;9.02;3.75;;;;;;;19.01;80.12;100770.66;8332738;28;20379;-57
2022/07/19 02:31:46;;;;;;;9.90;3.45;;;;;;;18.96;80.01;100767.63;8329948;28;20160;-56
2022/07/19 02:35:46;;;;;;;8.95;3.42;;;;;;;18.89;80.34;100766.69;8335636;28;20041;-57
2022/07/19 02:39:47;;;;;;;6.07;3.13;;;;;;;18.84;80.76;100766.38;8330234;28;20048;-56
2022/07/19 02:43:47;;;;;;;8.40;3.78;;;;;;;18.84;80.65;100763.63;8332113;28;20574;-56
2022/07/19 02:47:48;;;;;;;7.28;3.50;;;;;;;18.87;80.53;100763.25;8331059;28;20041;-57
2022/07/19 02:51:48;;;;;;;7.22;3.92;;;;;;;18.68;81.79;100771.16;8330739;28;20553;-56
2022/07/19 02:55:49;;;;;;;11.20;4.32;;;;;;;18.59;82.69;100767.66;8336770;28;20037;-57
2022/07/19 02:59:50;;;;;;;11.68;4.15;;;;;;;18.43;83.22;100759.63;8343048;28;20403;-55
2022/07/19 03:03:50;;;;;;;10.80;3.83;;;;;;;18.55;82.60;100763.63;8332969;28;20041;-56
2022/07/19 03:07:50;;;;;;;19.25;4.70;;;;;;;18.59;82.12;100770.41;8337634;28;20116;-57
2022/07/19 03:11:51;;;;;;;14.53;4.00;;;;;;;18.44;83.51;100772.25;8344397;28;20457;-57
2022/07/19 03:15:51;;;;;;;8.25;3.60;;;;;;;18.48;83.32;100773.59;8349872;28;20270;-57
2022/07/19 03:19:52;;;;;;;7.78;3.75;;;;;;;18.46;83.17;100764.72;8334881;28;20041;-57
2022/07/19 03:23:52;;;;;;;8.88;3.33;;;;;;;18.64;81.54;100762.50;8335168;28;20135;-57
2022/07/19 03:27:53;;;;;;;9.73;3.30;;;;;;;18.73;80.45;100771.47;8326319;28;20040;-57
2022/07/19 03:31:53;;;;;;;11.90;3.47;;;;;;;18.66;80.66;100771.34;8325454;28;20040;-57
2022/07/19 03:35:54;;;;;;;14.83;3.60;;;;;;;18.58;81.40;100779.66;8337694;28;20037;-55
2022/07/19 03:39:55;;;;;;;9.45;3.40;;;;;;;18.44;82.07;100780.47;8344683;28;20277;-57
2022/07/19 03:43:55;;;;;;;7.50;4.07;;;;;;;18.36;82.40;100775.03;8337143;28;20041;-54
2022/07/19 03:47:55;;;;;;;12.02;3.95;;;;;;;18.47;81.69;100777.38;8326335;28;20033;-57
2022/07/19 03:51:56;;;;;;;9.70;3.60;;;;;;;18.52;80.97;100780.41;8326444;28;20032;-57
2022/07/19 03:55:56;;;;;;;11.97;3.43;;;;;;;18.52;81.23;100774.06;8326648;28;20378;-57
2022/07/19 03:59:56;;;;;;;9.77;3.80;;;;;;;18.48;81.55;100779.06;8329522;28;20333;-57
2022/07/19 04:03:57;;;;;;;4.90;3.00;;;;;;;18.47;81.83;100771.91;8333984;28;20037;-58
2022/07/19 04:07:57;;;;;;;10.85;3.83;;;;;;;18.56;80.75;100770.78;8327202;28;20037;-58
2022/07/19 04:11:58;;;;;;;7.57;3.47;;;;;;;18.74;80.30;100779.50;8330687;28;20090;-57
2022/07/19 04:15:58;;;;;;;11.52;3.70;;;;;;;18.77;79.91;100772.78;8334939;28;20405;-55
2022/07/19 04:19:58;;;;;;;8.60;3.53;;;;;;;18.87;79.67;100767.88;8332175;28;20048;-57
2022/07/19 04:23:59;;;;;;;5.15;3.03;;;;;;;18.93;78.60;100768.00;8327528;28;20288;-57
2022/07/19 04:27:59;;;;;;;7.38;3.25;;;;;;;19.17;77.29;100775.94;8331247;28;20047;-57
2022/07/19 04:32:00;;;;;;;8.80;3.55;;;;;;;19.30;76.82;100773.41;8343888;28;20036;-57
2022/07/19 04:36:00;;;;;;;10.20;3.97;;;;;;;19.41;76.58;100772.94;8339759;28;20033;-57
2022/07/19 04:40:00;;;;;;;10.07;3.38;;;;;;;19.52;75.77;100771.59;8338320;28;20040;-58
2022/07/19 04:44:01;;;;;;;8.55;3.95;;;;;;;19.57;76.21;100771.03;8329579;28;20037;-57
2022/07/19 04:48:01;;;;;;;12.57;4.43;;;;;;;19.56;76.44;100767.41;8328947;28;20037;-57
2022/07/19 04:52:02;;;;;;;9.98;3.58;;;;;;;19.78;75.12;100774.63;8330200;28;20045;-57
2022/07/19 04:56:02;;;;;;;9.50;3.28;;;;;;;19.86;75.12;100776.41;8334951;28;20044;-57
2022/07/19 05:00:06;;;;;;;10.80;3.70;;;;;;;19.97;74.44;100773.16;8348658;28;20049;-57
2022/07/19 05:04:06;;;;;;;8.82;3.55;;;;;;;20.06;74.76;100769.25;8337037;28;20528;-58
2022/07/19 05:08:07;;;;;;;9.98;3.55;;;;;;;20.17;75.38;100768.75;8335849;28;20387;-55
2022/07/19 05:12:09;;;;;;;7.63;3.53;;;;;;;20.43;73.85;100764.34;8329827;28;20049;-58
2022/07/19 05:16:09;;;;;;;13.13;4.10;;;;;;;20.52;72.86;100779.63;8331581;28;20336;-58
2022/07/19 05:20:10;;;;;;;9.35;3.75;;;;;;;20.71;72.28;100778.94;8331686;28;20037;-57
2022/07/19 05:24:11;;;;;;;7.13;3.65;;;;;;;20.88;72.80;100768.50;8323751;28;20049;-57
2022/07/19 05:28:11;;;;;;;8.73;3.50;;;;;;;20.97;72.31;100773.69;8332083;28;20124;-57
2022/07/19 05:32:11;;;;;;;9.80;3.78;;;;;;;21.09;71.89;100766.56;8328229;28;20345;-57
2022/07/19 05:36:12;;;;;;;12.02;3.50;;;;;;;21.30;71.50;100771.13;8335120;28;20124;-57
2022/07/19 05:40:12;;;;;;;10.10;3.22;;;;;;;21.59;70.95;100768.06;8329614;28;20084;-58
2022/07/19 05:44:13;;;;;;;6.43;3.28;;;;;;;21.86;70.10;100764.41;8343823;28;20053;-58
2022/07/19 05:48:13;;;;;;;8.75;2.85;;;;;;;22.14;68.53;100759.59;8347893;28;20424;-58
2022/07/19 05:52:14;;;;;;;12.97;3.83;;;;;;;22.43;67.99;100761.97;8363834;28;20041;-57
2022/07/19 05:56:14;;;;;;;12.30;3.20;;;;;;;22.78;66.73;100768.97;8358797;28;20285;-57
2022/07/19 06:00:15;;;;;;;5.35;2.97;;;;;;;23.04;65.68;100763.44;8340845;28;20090;-57
2022/07/19 06:04:15;;;;;;;9.80;3.35;;;;;;;23.30;65.29;100769.97;8342308;28;20089;-57
2022/07/19 06:08:16;;;;;;;5.53;2.35;;;;;;;23.46;65.08;100773.13;8342241;28;20036;-56
2022/07/19 06:12:16;;;;;;;7.37;2.70;;;;;;;23.75;62.94;100769.78;8343533;28;20036;-58
2022/07/19 06:16:18;;;;;;;9.07;3.10;;;;;;;24.28;62.63;100778.66;8344507;28;20310;-58
2022/07/19 06:20:18;;;;;;;5.32;2.42;;;;;;;24.60;61.28;100791.38;8344128;28;20267;-58
2022/07/19 06:24:19;;;;;;;7.13;2.40;;;;;;;24.80;60.79;100786.56;8342330;28;20045;-58
2022/07/19 06:28:20;;;;;;;6.28;2.35;;;;;;;24.99;60.32;100791.94;8346862;28;20041;-58
2022/07/19 06:32:20;;;;;;;9.50;2.75;;;;;;;25.34;60.36;100777.56;8345889;28;20056;-57
2022/07/19 06:36:21;;;;;;;9.68;2.58;;;;;;;25.65;58.92;100780.16;8336517;28;20037;-58
2022/07/19 06:40:21;;;;;;;9.43;2.42;;;;;;;25.85;57.87;100781.59;8329295;28;20030;-58
2022/07/19 06:44:21;;;;;;;8.10;2.50;;;;;;;25.95;58.97;100779.09;8329415;28;20045;-56
2022/07/19 06:48:22;;;;;;;3.77;2.63;;;;;;;26.27;57.93;100775.06;8359708;28;20086;-57
2022/07/19 06:52:22;;;;;;;7.35;2.70;;;;;;;26.46;56.92;100776.66;8337954;28;20712;-58
2022/07/19 06:56:23;;;;;;;7.47;2.50;;;;;;;26.66;56.59;100779.16;8337981;28;20037;-57
2022/07/19 07:00:23;;;;;;;8.40;2.60;;;;;;;26.87;56.62;100767.47;8324274;28;20359;-58
2022/07/19 07:04:23;;;;;;;4.38;2.22;;;;;;;27.27;56.40;100778.72;8330677;28;20280;-57
2022/07/19 07:08:24;;;;;;;8.38;2.40;;;;;;;27.28;54.86;100785.94;8328957;28;20135;-58
2022/07/19 07:12:24;;;;;;;6.63;2.60;;;;;;;27.65;54.28;100790.09;8323306;28;20032;-57
2022/07/19 07:16:24;;;;;;;5.00;2.20;;;;;;;28.04;53.58;100778.19;8325504;28;20291;-57
2022/07/19 07:20:25;;;;;;;14.97;3.00;;;;;;;28.19;53.85;100787.69;8336972;28;20370;-57
2022/07/19 07:24:26;;;;;;;13.32;2.83;;;;;;;28.31;53.46;100777.34;8341336;28;20291;-57
2022/07/19 07:28:26;;;;;;;14.55;2.60;;;;;;;28.87;52.90;100787.53;8338915;28;20033;-57
2022/07/19 07:32:27;;;;;;;8.43;2.47;;;;;;;28.92;52.51;100782.03;8331763;28;20091;-57
2022/07/19 07:36:27;;;;;;;5.25;2.40;;;;;;;29.05;52.35;100781.72;8335420;28;20268;-57
2022/07/19 07:40:27;;;;;;;9.83;2.87;;;;;;;29.33;51.85;100789.94;8323032;28;20033;-57
2022/07/19 07:44:28;;;;;;;8.70;2.63;;;;;;;29.44;51.20;100775.06;8330579;28;20049;-56
2022/07/19 07:48:28;;;;;;;9.90;2.90;;;;;;;29.92;50.98;100782.69;8320369;28;20501;-57
2022/07/19 07:52:29;;;;;;;11.03;2.63;;;;;;;30.20;50.86;100772.19;8338222;28;20394;-57
2022/07/19 07:56:29;;;;;;;4.43;2.40;;;;;;;30.24;50.12;100767.75;8331236;28;20286;-57
2022/07/19 08:00:29;;;;;;;15.47;2.90;;;;;;;30.49;49.89;100766.31;8325011;28;20227;-56
2022/07/19 08:04:30;;;;;;;8.30;2.42;;;;;;;30.51;49.48;100759.38;8333162;28;20718;-56
2022/07/19 08:08:30;;;;;;;15.33;2.70;;;;;;;30.77;49.03;100757.66;8337306;28;20753;-55
2022/07/19 08:12:31;;;;;;;8.33;2.40;;;;;;;30.73;48.73;100762.09;8339360;28;20294;-55
2022/07/19 08:16:31;;;;;;;8.38;2.40;;;;;;;30.91;49.16;100761.66;8341290;28;20282;-55
2022/07/19 08:20:32;;;;;;;6.20;2.35;;;;;;;31.34;48.46;100755.84;8331658;28;20061;-57
2022/07/19 08:24:32;;;;;;;9.03;2.17;;;;;;;31.77;47.56;100744.31;8326255;28;20053;-57
2022/07/19 08:28:33;;;;;;;14.27;2.60;;;;;;;31.72;47.00;100749.91;8330626;28;20145;-57
2022/07/19 08:32:33;;;;;;;5.37;2.20;;;;;;;31.74;47.75;100745.72;8323185;28;20045;-56
2022/07/19 08:36:33;;;;;;;10.30;2.50;;;;;;;32.52;47.04;100740.91;8324557;28;20044;-56
2022/07/19 08:40:34;;;;;;;4.50;2.53;;;;;;;32.36;46.38;100740.06;8336661;28;20040;-57
2022/07/19 08:44:38;;;;;;;7.05;2.08;;;;;;;32.47;45.99;100735.31;8330019;28;20091;-57
2022/07/19 08:48:39;;;;;;;12.10;2.65;;;;;;;32.78;45.87;100725.78;8323898;28;20490;-58
2022/07/19 08:52:40;;;;;;;8.23;2.08;;;;;;;32.93;45.64;100726.63;8325191;28;20400;-57
2022/07/19 08:58:12;;;;;;;9.95;2.22;;;;;;;33.27;45.10;100732.47;8319013;28;20038;-57
2022/07/19 09:01:01;;;;;;;6.68;2.20;;;;;;;33.36;43.83;100728.78;8323392;28;20040;-56
2022/07/19 09:05:08;;;;;;;8.33;2.03;;;;;;;33.66;44.09;100722.25;8328945;28;20049;-57
2022/07/19 09:09:09;;;;;;;4.10;1.85;;;;;;;33.75;43.66;100715.75;8332782;28;20283;-58
2022/07/19 09:13:12;;;;;;;5.10;2.35;;;;;;;34.01;43.66;100718.44;8337200;28;20439;-57
2022/07/19 09:17:16;;;;;;;3.13;1.90;;;;;;;34.13;42.35;100728.19;8337022;28;20536;-57
2022/07/19 09:21:17;;;;;;;10.95;2.08;;;;;;;34.23;41.63;100716.06;8332996;28;20040;-58
2022/07/19 09:25:32;;;;;;;7.32;2.08;;;;;;;34.53;42.41;100715.84;8331277;28;20505;-58
2022/07/19 09:29:37;;;;;;;5.00;2.00;;;;;;;34.96;41.86;100709.31;8327325;28;20067;-57
2022/07/19 09:33:37;;;;;;;3.45;1.95;;;;;;;34.81;41.41;100709.41;8353562;28;20361;-57
2022/07/19 09:37:39;;;;;;;9.95;2.40;;;;;;;35.08;42.26;100709.75;8328742;28;20128;-57
2022/07/19 09:41:54;;;;;;;5.90;2.10;;;;;;;35.21;41.10;100706.22;8369560;28;20056;-57
2022/07/19 09:45:55;;;;;;;3.53;1.88;;;;;;;35.17;40.42;100705.16;8320345;28;20696;-57
2022/07/19 09:49:55;;;;;;;5.97;1.87;;;;;;;35.51;40.09;100700.25;8322840;28;20063;-59
2022/07/19 09:53:57;;;;;;;7.63;2.13;;;;;;;35.55;38.81;100696.56;8327603;28;20064;-59
2022/07/19 09:58:01;;;;;;;10.43;2.50;;;;;;;35.73;38.54;100694.91;8323229;28;20119;-59
2022/07/19 10:02:03;;;;;;;7.20;1.95;;;;;;;36.33;37.30;100685.63;8321529;28;20140;-59
2022/07/19 10:06:03;;;;;;;6.18;2.53;;;;;;;37.04;36.72;100686.06;8324913;28;20698;-58
2022/07/19 10:10:07;;;;;;;3.78;1.90;;;;;;;38.58;35.43;100687.78;8324480;28;20659;-59
2022/07/19 10:14:08;;;;;;;4.13;1.70;;;;;;;39.22;33.91;100692.00;8328668;28;20045;-59
2022/07/19 10:18:13;;;;;;;8.43;1.50;;;;;;;40.07;32.51;100693.16;8319360;28;20083;-59
2022/07/19 10:22:17;;;;;;;4.97;1.52;;;;;;;40.72;32.12;100696.66;8321882;28;20752;-58
2022/07/19 10:26:36;;;;;;;8.13;1.90;;;;;;;41.02;31.30;100685.41;8321173;28;20041;-59
2022/07/19 10:30:40;;;;;;;7.05;2.00;;;;;;;40.98;31.39;100681.56;8324146;28;20049;-59
2022/07/19 10:34:42;;;;;;;4.45;1.70;;;;;;;41.14;30.47;100677.03;8320876;28;20067;-59
2022/07/19 10:43:30;;;;;;;7.28;1.88;;;;;;;41.56;30.34;100656.16;8339681;27;20410;-58
2022/07/19 10:51:48;;;;;;;2.13;1.17;;;;;;;41.68;28.13;100653.41;8368040;27;20983;-58
2022/07/19 10:56:16;;;;;;;3.43;1.30;;;;;;;42.24;28.02;100638.59;8364268;28;20056;-58
2022/07/19 11:04:34;;;;;;;11.07;1.65;;;;;;;41.79;27.28;100649.81;8389541;27;20423;-58
2022/07/19 11:08:36;;;;;;;;;;;;;;;41.37;27.56;100635.84;8362157;28;20113;-58
2022/07/19 11:12:36;;;;;;;3.93;1.80;;;;;;;42.21;27.42;100627.94;8362355;28;19916;-58
2022/07/19 11:16:37;;;;;;;5.85;1.45;;;;;;;41.70;28.64;100628.31;8360518;28;20790;-57
2022/07/19 11:20:37;;;;;;;6.43;1.53;;;;;;;42.04;27.99;100616.69;8362424;28;20029;-58
2022/07/19 11:24:38;;;;;;;8.57;1.80;;;;;;;42.03;27.85;100609.34;8361073;28;20297;-58
2022/07/19 11:28:41;;;;;;;6.10;1.45;;;;;;;42.32;28.22;100600.78;8357243;28;20041;-57
2022/07/19 11:32:43;;;;;;;5.85;1.77;;;;;;;42.39;27.86;100606.72;8360897;28;20496;-58
2022/07/19 11:36:43;;;;;;;3.35;1.45;;;;;;;42.39;27.99;100606.72;8358168;28;21468;-58
2022/07/19 11:40:43;;;;;;;2.10;1.35;;;;;;;42.50;26.83;100596.53;8360669;28;20070;-58
2022/07/19 11:44:44;;;;;;;5.57;1.30;;;;;;;42.41;27.79;100581.59;8354931;28;20068;-58
2022/07/19 11:48:57;;;;;;;7.22;1.50;;;;;;;42.21;27.32;100594.66;8355868;28;20302;-57
2022/07/19 11:52:59;;;;;;;3.42;1.30;;;;;;;42.14;27.53;100582.19;8353883;28;20519;-58
2022/07/19 11:56:59;;;;;;;8.13;1.63;;;;;;;42.65;27.28;100584.47;8353975;27;20045;-58
2022/07/19 12:01:02;;;;;;;5.53;1.40;;;;;;;41.92;27.01;100556.97;8352830;28;20052;-57
2022/07/19 12:05:09;;;;;;;;;;;;;;;41.81;27.84;100579.28;8357457;27;20775;-58
2022/07/19 12:09:11;;;;;;;7.03;1.45;;;;;;;41.68;27.74;100562.50;8357051;28;19916;-58
2022/07/19 12:13:14;;;;;;;4.63;1.45;;;;;;;40.67;28.62;100572.03;8349591;28;20411;-57
2022/07/19 12:17:20;;;;;;;6.67;1.23;;;;;;;39.16;28.98;100561.16;8335595;28;20672;-57
2022/07/19 12:21:41;;;;;;;20.60;2.30;;;;;;;38.44;29.17;100554.13;8336629;28;20051;-57
2022/07/19 12:25:42;;;;;;;5.15;1.80;;;;;;;37.96;29.99;100545.47;8335324;28;20041;-57
2022/07/19 12:34:00;;;;;;;4.20;1.60;;;;;;;37.60;29.24;100541.00;8322686;27;20397;-57
2022/07/19 12:38:04;;;;;;;5.35;1.58;;;;;;;37.87;29.30;100540.94;8306045;28;20275;-58
2022/07/19 12:42:06;;;;;;;4.75;1.73;;;;;;;37.83;29.44;100534.22;8309048;28;20056;-57
2022/07/19 12:46:06;;;;;;;4.97;1.48;;;;;;;37.69;28.65;100522.19;8321888;28;20037;-57
2022/07/19 12:50:09;;;;;;;3.80;1.63;;;;;;;37.81;28.79;100522.44;8310423;28;20038;-57
2022/07/19 12:54:10;;;;;;;5.20;1.87;;;;;;;37.88;29.37;100525.63;8321124;28;20690;-57
2022/07/19 12:58:12;;;;;;;3.45;2.00;;;;;;;37.68;29.09;100520.50;8314668;28;20526;-57
2022/07/19 13:02:15;;;;;;;2.70;1.58;;;;;;;37.74;28.98;100516.41;8316279;28;20404;-57
2022/07/19 13:06:16;;;;;;;3.35;1.90;;;;;;;37.68;28.58;100517.69;8327536;28;20560;-57
2022/07/19 13:10:16;;;;;;;9.50;1.83;;;;;;;37.37;28.48;100507.09;8307775;28;20136;-57
2022/07/19 13:14:17;;;;;;;4.40;1.85;;;;;;;37.53;28.57;100506.75;8310859;28;20068;-57
2022/07/19 13:18:18;;;;;;;7.37;2.20;;;;;;;37.64;28.50;100499.66;8304044;28;20061;-57
2022/07/19 13:22:18;;;;;;;6.72;2.17;;;;;;;37.63;28.42;100489.53;8314678;28;20282;-57
2022/07/19 13:26:19;;;;;;;4.57;1.85;;;;;;;37.96;28.67;100493.81;8310378;28;20128;-57
2022/07/19 13:30:19;;;;;;;5.87;1.80;;;;;;;37.72;28.86;100491.31;8314093;28;20124;-57
2022/07/19 13:34:19;;;;;;;4.43;1.80;;;;;;;37.94;28.66;100493.28;8314729;28;20363;-57
2022/07/19 13:38:20;;;;;;;3.85;1.50;;;;;;;38.01;28.44;100491.69;8311094;28;20502;-57
2022/07/19 13:42:20;;;;;;;5.20;1.80;;;;;;;38.08;29.37;100474.28;8299084;28;20072;-57
2022/07/19 13:46:21;;;;;;;11.27;1.63;;;;;;;37.72;28.79;100476.38;8278313;28;20046;-57
2022/07/19 13:50:21;;;;;;;4.22;1.40;;;;;;;37.62;29.29;100465.31;8283554;28;20477;-57
2022/07/19 13:54:22;;;;;;;3.67;1.90;;;;;;;37.70;29.18;100458.91;8285954;28;20037;-57
2022/07/19 13:58:22;;;;;;;4.25;2.22;;;;;;;37.63;28.91;100461.31;8291844;28;20069;-57
2022/07/19 14:02:23;;;;;;;4.40;1.40;;;;;;;37.57;28.75;100454.13;8286140;28;20041;-57
2022/07/19 14:06:25;;;;;;;3.43;1.50;;;;;;;37.53;29.27;100444.66;8286390;28;20360;-57
2022/07/19 14:10:26;;;;;;;3.88;1.40;;;;;;;37.64;29.04;100446.03;8284608;28;20521;-57
2022/07/19 14:14:26;;;;;;;5.77;1.37;;;;;;;37.69;28.92;100431.84;8292700;28;20051;-57
2022/07/19 14:18:28;;;;;;;10.35;1.70;;;;;;;37.82;29.07;100425.28;8284366;28;20574;-57
2022/07/19 14:22:28;;;;;;;2.15;1.40;;;;;;;37.61;28.92;100429.75;8286943;28;20059;-57
2022/07/19 14:26:28;;;;;;;3.77;1.40;;;;;;;37.87;29.05;100422.31;8291388;28;20045;-57
2022/07/19 14:30:29;;;;;;;6.60;1.77;;;;;;;37.93;28.46;100421.84;8290353;28;20296;-57
2022/07/19 14:34:29;;;;;;;1.83;1.42;;;;;;;37.94;28.72;100408.56;8293350;28;20414;-57
2022/07/19 14:38:30;;;;;;;6.90;1.50;;;;;;;37.85;29.04;100402.03;8292266;28;20271;-56
2022/07/19 14:42:31;;;;;;;1.93;1.50;;;;;;;37.65;29.57;100397.75;8287934;28;20041;-57
2022/07/19 14:46:32;;;;;;;4.95;1.55;;;;;;;37.73;29.65;100404.63;8289452;28;20304;-57
2022/07/19 14:50:32;;;;;;;6.22;1.55;;;;;;;38.05;28.35;100376.06;8292683;28;20049;-57
2022/07/19 14:54:33;;;;;;;3.30;1.20;;;;;;;38.18;27.87;100389.28;8284721;28;20100;-57
2022/07/19 14:58:33;;;;;;;5.40;1.20;;;;;;;38.03;28.20;100392.50;8291990;28;20164;-57
2022/07/19 15:02:34;;;;;;;3.07;1.40;;;;;;;37.97;28.72;100383.34;8290543;28;20037;-57
2022/07/19 15:06:34;;;;;;;4.20;1.52;;;;;;;37.83;29.37;100391.06;8287679;28;20639;-57
2022/07/19 15:10:34;;;;;;;3.55;2.00;;;;;;;37.83;29.66;100379.78;8283153;28;20274;-57
2022/07/19 15:14:35;;;;;;;3.10;1.70;;;;;;;37.95;28.84;100376.34;8289534;28;20038;-57
2022/07/19 15:18:35;;;;;;;7.82;1.60;;;;;;;37.98;27.88;100385.00;8288076;28;20735;-57
2022/07/19 15:22:37;;;;;;;3.50;1.80;;;;;;;37.75;28.47;100374.94;8289147;28;20545;-56
2022/07/19 15:26:37;;;;;;;6.85;1.48;;;;;;;37.77;28.79;100360.47;8286335;28;20105;-57
2022/07/19 15:30:37;;;;;;;4.10;1.83;;;;;;;37.86;28.60;100375.44;8289669;28;20037;-57
2022/07/19 15:34:38;;;;;;;3.20;1.73;;;;;;;37.62;28.80;100358.03;8291585;28;20041;-57
2022/07/19 15:38:39;;;;;;;4.18;2.35;;;;;;;37.64;28.52;100352.88;8290746;28;20291;-57
2022/07/19 15:42:46;;;;;;;4.93;1.70;;;;;;;37.71;28.45;100356.13;8308482;28;20033;-57
2022/07/19 15:46:46;;;;;;;4.85;1.80;;;;;;;37.75;28.87;100351.50;8288072;28;20536;-57
2022/07/19 15:50:47;;;;;;;3.97;2.00;;;;;;;37.92;28.39;100357.22;8295544;28;20059;-57
2022/07/19 15:54:47;;;;;;;5.10;1.80;;;;;;;37.85;28.05;100339.91;8283725;28;20276;-57
2022/07/19 15:58:47;;;;;;;6.43;1.60;;;;;;;37.78;28.53;100331.09;8292464;28;20370;-57
2022/07/19 16:02:48;;;;;;;3.23;2.00;;;;;;;37.80;28.15;100331.59;8282359;28;20045;-57
2022/07/19 16:06:48;;;;;;;6.75;1.95;;;;;;;37.74;28.98;100322.41;8303844;28;20283;-57
2022/07/19 16:10:49;;;;;;;5.13;2.00;;;;;;;37.57;27.88;100327.13;8283651;28;20045;-56
2022/07/19 16:14:53;;;;;;;4.68;1.90;;;;;;;37.54;28.39;100333.41;8291632;28;20065;-57
2022/07/19 16:18:54;;;;;;;4.88;2.08;;;;;;;37.54;28.55;100310.84;8282873;28;20490;-57
2022/07/19 16:22:55;;;;;;;5.30;2.00;;;;;;;37.54;28.40;100305.19;8285156;28;20461;-57
2022/07/19 16:26:55;;;;;;;7.68;2.10;;;;;;;37.53;28.86;100320.47;8290503;28;20045;-57
2022/07/19 16:30:55;;;;;;;7.67;2.03;;;;;;;37.47;29.05;100312.13;8282749;28;20414;-56
2022/07/19 16:34:56;;;;;;;7.77;2.00;;;;;;;37.38;29.15;100297.13;8283872;28;20096;-56
2022/07/19 16:38:56;;;;;;;3.67;1.95;;;;;;;37.38;28.53;100290.63;8275725;28;20285;-57
2022/07/19 16:42:57;;;;;;;2.40;2.17;;;;;;;37.33;28.86;100293.63;8281363;28;20041;-56
2022/07/19 16:46:58;;;;;;;7.07;2.10;;;;;;;37.34;28.85;100273.53;8281601;28;20287;-57
2022/07/19 16:50:58;;;;;;;7.93;1.85;;;;;;;37.29;28.65;100286.97;8285177;28;20280;-57
2022/07/19 16:54:58;;;;;;;4.85;2.22;;;;;;;37.23;28.92;100277.78;8288171;28;20458;-57
2022/07/19 16:59:00;;;;;;;3.63;2.03;;;;;;;37.27;29.39;100281.66;8283477;28;20037;-57
2022/07/19 17:03:01;;;;;;;4.63;1.75;;;;;;;37.29;29.33;100282.13;8286023;28;20359;-57
2022/07/19 17:07:01;;;;;;;4.85;1.83;;;;;;;37.15;29.52;100274.88;8288484;28;20049;-57
2022/07/19 17:11:02;;;;;;;9.55;2.50;;;;;;;37.15;29.62;100272.91;8284516;28;20069;-57
2022/07/19 17:15:03;;;;;;;6.18;1.75;;;;;;;37.06;29.89;100271.16;8287762;28;20045;-57
2022/07/19 17:19:03;;;;;;;8.30;1.98;;;;;;;37.07;29.55;100265.22;8290001;28;20038;-57
2022/07/19 17:23:04;;;;;;;5.93;1.60;;;;;;;37.02;29.02;100264.50;8297017;28;20142;-57
2022/07/19 17:27:04;;;;;;;8.02;1.80;;;;;;;36.92;29.12;100261.94;8298549;28;20319;-57
2022/07/19 17:31:05;;;;;;;6.45;1.90;;;;;;;36.89;28.84;100265.38;8293572;28;20080;-57
2022/07/19 17:35:05;;;;;;;3.88;1.80;;;;;;;36.73;29.39;100267.75;8293772;28;20432;-57
2022/07/19 17:39:07;;;;;;;6.15;2.13;;;;;;;36.62;29.46;100260.66;8294943;28;20091;-57
2022/07/19 17:43:07;;;;;;;6.82;1.92;;;;;;;36.60;29.09;100257.34;8292413;28;20319;-56
2022/07/19 17:47:08;;;;;;;4.55;2.03;;;;;;;36.54;29.44;100257.78;8290090;28;20150;-57
2022/07/19 17:51:08;;;;;;;5.95;2.10;;;;;;;36.37;29.91;100266.91;8292624;28;20063;-56
2022/07/19 17:55:09;;;;;;;8.47;1.60;;;;;;;36.26;30.70;100259.81;8298834;28;20363;-57
2022/07/19 17:59:10;;;;;;;5.38;1.88;;;;;;;36.24;30.74;100258.44;8288639;28;20052;-57
2022/07/19 18:03:11;;;;;;;6.55;1.85;;;;;;;36.19;30.94;100265.03;8282370;28;20085;-57
2022/07/19 18:07:11;;;;;;;2.85;1.80;;;;;;;36.05;31.27;100255.78;8274656;28;20513;-57
2022/07/19 18:11:11;;;;;;;6.10;1.60;;;;;;;36.07;31.27;100264.72;8278005;28;20045;-57
2022/07/19 18:15:27;;;;;;;5.88;1.63;;;;;;;35.91;31.84;100263.41;8253424;28;20057;-56
2022/07/19 18:19:28;;;;;;;9.25;2.00;;;;;;;35.63;32.16;100267.34;8278031;28;20546;-57
2022/07/19 18:23:43;;;;;;;7.97;2.35;;;;;;;35.47;32.54;100272.41;8299532;28;20138;-57
2022/07/19 18:27:46;;;;;;;6.45;1.67;;;;;;;35.27;33.23;100271.91;8259038;28;20045;-57
2022/07/19 18:31:47;;;;;;;4.53;1.73;;;;;;;35.30;32.98;100276.94;8307954;28;20063;-57
2022/07/19 18:35:48;;;;;;;6.57;2.10;;;;;;;35.12;33.63;100275.00;8296774;28;20045;-56
2022/07/19 18:39:48;;;;;;;6.25;1.88;;;;;;;34.97;33.65;100280.91;8292651;28;20103;-57
2022/07/19 18:43:49;;;;;;;6.47;2.00;;;;;;;34.71;34.19;100286.09;8293540;28;20490;-56
2022/07/19 18:47:49;;;;;;;6.20;1.95;;;;;;;34.63;34.47;100280.28;8291513;28;20272;-56
2022/07/19 18:51:50;;;;;;;7.60;1.90;;;;;;;34.38;34.98;100280.69;8293739;28;20041;-57
2022/07/19 18:55:52;;;;;;;6.20;1.90;;;;;;;34.28;35.19;100283.59;8294425;28;20330;-57
2022/07/19 18:59:52;;;;;;;7.28;2.08;;;;;;;34.07;35.54;100279.41;8294477;28;20072;-56